EDDMEDJA

Guest
Details From EDDM - Muenchen Franz-josef Strauss
To EDJA - Memmingen Allgau
Flight Number -
Tags Generated
Created
Modified
Stats Distance 65 nm / 120 km
Max Altitude 0 ft / 0 m
Waypoints 2
Social Downloads 1
Likes 0
Share VATSIM

Download

Looking for another format? Having issues loading an existing format? Contact us
Advertisement - Login to hide

Notes

Generated

Route

EDDM EDJA

ID Type Via Altitude Latitude Longitude Leg Dist Tot Dist Heading (true) Name
O EDDM APT - 0 ft / 0 m 48.34069˚ 11.75108˚ - 0 nm - -
O EDJA APT - 0 ft / 0 m 47.98165˚ 10.22257˚ 64 nm 64 nm 251° / 250° -

Altitude Profile

Advertisement - Login to hide

EDDM

Details ICAO EDDM (MUC)
Name Muenchen Franz-Josef Strauss
Region Germany - Civil
Timezone Europe/Berlin (UTC+2.0)
Stats Elevation 1,487 ft / 453 m (AMSL)
Location 48.353786° 11.786117°
Runways 2
Magnetic Variation 3.216° E

METAR

EDDM 261150Z 06007KT 030V100 CAVOK 23/15 Q1021 NOSIG

Decode

TAF

TAF EDDM 261100Z 2612/2718 07007KT 9999 FEW040 BECMG 2616/2618 VRB02KT PROB30 TEMPO 2701/2705 4000 BCFG BECMG 2706/2708 08006KT

Decode

Departure Runways

ID Width Length Bearing (true) Bearing (mag) Surface Threshold Offset Overrun Length
08L 197 ft / 60 m 13,086 ft / 3,989 m 83.38° 80.16° Concrete 0 ft / 0 m 0 ft / 0 m
08R 197 ft / 60 m 13,086 ft / 3,989 m 83.37° 80.15° Concrete 0 ft / 0 m 0 ft / 0 m
26L 197 ft / 60 m 13,086 ft / 3,989 m 263.41° 260.19° Concrete 0 ft / 0 m 0 ft / 0 m
26R 197 ft / 60 m 13,086 ft / 3,989 m 263.42° 260.20° Concrete 0 ft / 0 m 0 ft / 0 m

EDJA

Details ICAO EDJA (FMM)
Name MEMMINGEN ALLGAU
Region Germany - Civil
Timezone Europe/Berlin (UTC+2.0)
Stats Elevation 2,077 ft / 633 m (AMSL)
Location 47.988757° 10.239502°
Runways 1
Magnetic Variation 2.826° E

METAR

EDJA 261150Z 06006KT 010V110 CAVOK 24/12 Q1021

Decode

TAF

Not found

Destination Runways

ID Width Length Bearing (true) Bearing (mag) Surface Threshold Offset Overrun Length
06 98 ft / 30 m 9,762 ft / 2,975 m 57.91° 55.08° Asphalt 953 ft / 290 m 0 ft / 0 m
24 98 ft / 30 m 9,762 ft / 2,975 m 237.94° 235.11° Asphalt 953 ft / 290 m 0 ft / 0 m

Approach Navaids

Runway Type Ident Frequency Range Bearing (true) Bearing (mag) Slope Elevation
24 Localiser IAMW 110.10 MHz 18 nm / 33 km 239.25° 236.42° - 0 ft / 0 m (AMSL)
24 Glidescope IAMW 110.10 MHz 18 nm / 33 km 237.44° 234.61° 3.00° 2,050 ft / 625 m (AMSL)
24 DME IAMW 110.10 MHz 25 nm / 46 km - - - 2,064 ft / 629 m (AMSL)

Popular Alternatives